Independence, Ohio
Current Conditions -  °F | °C
As of 10:53 AM on Thursday 29 Jan 2015 (Local Time) from KBKL Reporting Station
Overcast Overcast  
Wind Chill: 25°   Ceiling: 4900
Heat Index: 37°   Visibility: 10mi
Dew Point: 25°   Wind: 25mph
Humidity: 62%   Direction: 170°S
Pressure: 29.8"   Gusts: 35mph
Location:  41.38°N, 81.64°W
Report Text: KBKL 291553Z 17022G30KT 10SM OVC049 03/M04 A2980 RMK AO2 PK WND 15030/1549 UPB1458E21 SLP096 P0000 T00281039
Loading
Personal Weather Stations






























Interactive Weather Map New forecast layout! Learn more

10-Day Weather Forecast

Advertisements
Track Severe Weather on mobile